| time (UTC) | temp F | wind direction | speed knots | gust knots | rain 1hr in | rain 24hr in | rain mn in | humidity % | barometer mb |
| 20260510124239 | 42 | 230 | 2.6 | 7.8 | 0.00 | 0.11 | 0.00 | 72 | 1012.8 |
| 20260510122730 | 41 | 327 | 3.5 | 10.4 | 0.00 | 0.11 | 0.00 | 74 | 1012.8 |
| 20260510121250 | 40 | 233 | 3.5 | 10.4 | 0.00 | 0.11 | 0.00 | 75 | 1012.7 |
| 20260510115725 | 39 | 305 | 2.6 | 9.6 | 0.00 | 0.11 | 0.00 | 78 | 1012.4 |
| 20260510114208 | 38 | 0 | 2.6 | 8.7 | 0.00 | 0.11 | 0.00 | 81 | 1012.3 |
| 20260510112645 | 37 | 331 | 1.7 | 6.1 | 0.00 | 0.11 | 0.00 | 84 | 1012.2 |
| 20260510105524 | 35 | 277 | 0.0 | 3.5 | 0.00 | 0.11 | 0.00 | 86 | 1011.6 |
| 20260510104059 | 35 | 327 | 0.0 | 1.7 | 0.00 | 0.11 | 0.00 | 85 | 1011.3 |
| 20260510100934 | 35 | 315 | 0.0 | 0.0 | 0.00 | 0.11 | 0.00 | 83 | 1010.4 |
| 20260510095442 | 36 | 292 | 0.0 | 0.0 | 0.00 | 0.11 | 0.00 | 83 | 1010.3 |
| 20260510093958 | 36 | 294 | 0.0 | 0.9 | 0.00 | 0.11 | 0.00 | 82 | 1010.0 |
| 20260510092537 | 36 | 317 | 0.0 | 0.0 | 0.00 | 0.11 | 0.00 | 82 | 1009.6 |
| 20260510090959 | 36 | 298 | 0.0 | 0.0 | 0.00 | 0.11 | 0.00 | 81 | 1009.6 |
| 20260510085411 | 37 | 313 | 0.0 | 0.0 | 0.00 | 0.11 | 0.00 | 81 | 1009.2 |
| 20260510083904 | 37 | 337 | 0.0 | 0.0 | 0.00 | 0.11 | 0.00 | 81 | 1009.0 |
| 20260510082353 | 37 | 313 | 0.0 | 0.0 | 0.00 | 0.11 | 0.00 | 80 | 1009.0 |
| 20260510080905 | 38 | 301 | 0.0 | 0.9 | 0.00 | 0.11 | 0.00 | 79 | 1008.9 |
| 20260510075356 | 38 | 306 | 0.0 | 0.0 | 0.00 | 0.11 | 0.00 | 78 | 1008.7 |
| 20260510073935 | 39 | 304 | 0.0 | 0.0 | 0.00 | 0.11 | 0.00 | 77 | 1008.7 |
| 20260510072438 | 40 | 312 | 0.0 | 0.9 | 0.00 | 0.11 | 0.00 | 76 | 1008.5 |
| 20260510070854 | 40 | 315 | 0.0 | 1.7 | 0.00 | 0.11 | 0.00 | 74 | 1008.5 |
| 20260510065306 | 41 | 321 | 0.0 | 0.0 | 0.00 | 0.11 | 0.00 | 73 | 1008.5 |
| 20260510063822 | 42 | 325 | 0.0 | 1.7 | 0.00 | 0.11 | 0.00 | 73 | 1008.5 |
| 20260510062353 | 42 | 320 | 0.9 | 5.2 | 0.00 | 0.11 | 0.00 | 72 | 1008.5 |
| 20260510060929 | 42 | 307 | 0.0 | 1.7 | 0.00 | 0.11 | 0.00 | 71 | 1008.2 |
| 20260510053853 | 43 | 330 | 0.9 | 6.1 | 0.00 | 0.11 | 0.00 | 71 | 1007.9 |
| 20260510052348 | 44 | 342 | 0.0 | 0.9 | 0.00 | 0.11 | 0.00 | 72 | 1007.6 |
| 20260510050807 | 45 | 302 | 0.0 | 0.0 | 0.00 | 0.11 | 0.00 | 72 | 1007.3 |
| 20260510043708 | 46 | 320 | 0.0 | 0.0 | 0.00 | 0.11 | 0.00 | 75 | 1006.8 |
| 20260510042218 | 46 | 329 | 0.0 | 0.0 | 0.00 | 0.11 | 0.00 | 75 | 1006.9 |
| 20260510040742 | 46 | 280 | 0.9 | 4.3 | 0.00 | 0.11 | 0.00 | 76 | 1007.1 |
| 20260510035321 | 46 | 304 | 0.0 | 0.0 | 0.00 | 0.11 | 0.11 | 77 | 1006.5 |
| 20260510033744 | 47 | 307 | 0.0 | 0.0 | 0.00 | 0.11 | 0.11 | 77 | 1006.2 |
| 20260510032239 | 47 | 311 | 0.0 | 0.0 | 0.00 | 0.11 | 0.11 | 77 | 1006.1 |
| 20260510030730 | 48 | 12 | 0.0 | 0.0 | 0.00 | 0.11 | 0.11 | 77 | 1005.7 |
| 20260510025219 | 48 | 302 | 0.0 | 0.9 | 0.00 | 0.11 | 0.11 | 77 | 1005.6 |
| 20260510023747 | 49 | 313 | 0.0 | 0.9 | 0.00 | 0.11 | 0.11 | 76 | 1005.2 |
| 20260510020638 | 50 | 349 | 2.6 | 7.8 | 0.00 | 0.11 | 0.11 | 82 | 1005.1 |
| 20260510015143 | 51 | 346 | 3.5 | 8.7 | 0.00 | 0.11 | 0.11 | 86 | 1004.7 |
| 20260510013606 | 52 | 260 | 0.9 | 7.0 | 0.00 | 0.11 | 0.11 | 88 | 1004.4 |
| 20260510012135 | 52 | 267 | 0.9 | 7.0 | 0.00 | 0.11 | 0.11 | 87 | 1003.7 |
| 20260510010549 | 52 | 228 | 0.0 | 0.0 | 0.00 | 0.11 | 0.11 | 87 | 1003.4 |
| 20260510005034 | 52 | 196 | 0.9 | 2.6 | 0.00 | 0.11 | 0.11 | 87 | 1002.7 |
| 20260510003513 | 52 | 219 | 0.9 | 3.5 | 0.00 | 0.11 | 0.11 | 86 | 1002.5 |
| 20260510001932 | 52 | 200 | 0.9 | 3.5 | 0.00 | 0.11 | 0.11 | 85 | 1002.5 |
| 20260509234815 | 54 | 194 | 2.6 | 5.2 | 0.00 | 0.11 | 0.11 | 84 | 1002.3 |
| 20260509233301 | 54 | 146 | 3.5 | 8.7 | 0.00 | 0.11 | 0.11 | 82 | 1002.1 |
| 20260509231821 | 55 | 200 | 2.6 | 7.0 | 0.00 | 0.11 | 0.11 | 83 | 1001.7 |
| 20260509224605 | 55 | 228 | 3.5 | 7.8 | 0.00 | 0.11 | 0.11 | 83 | 1001.1 |
| 20260509223029 | 56 | 193 | 4.3 | 8.7 | 0.00 | 0.11 | 0.11 | 83 | 1001.0 |
| 20260509215919 | 57 | 195 | 5.2 | 12.2 | 0.00 | 0.11 | 0.11 | 85 | 1000.9 |
| 20260509214340 | 56 | 223 | 4.3 | 10.4 | 0.00 | 0.11 | 0.11 | 87 | 1001.0 |
| 20260509212915 | 54 | 184 | 6.1 | 16.5 | 0.03 | 0.11 | 0.11 | 86 | 1000.6 |
| 20260509211350 | 55 | 219 | 5.2 | 16.5 | 0.08 | 0.11 | 0.11 | 84 | 1001.2 |
| 20260509205847 | 56 | 200 | 5.2 | 12.2 | 0.28 | 0.02 | 0.03 | 80 | 1001.1 |
| 20260509204416 | 57 | 223 | 6.1 | 17.4 | 0.00 | 0.00 | 0.00 | 75 | 1000.8 |
| 20260509202943 | 58 | 173 | 6.1 | 17.4 | 0.00 | 0.00 | 0.00 | 75 | 1000.6 |
| 20260509201358 | 58 | 229 | 6.1 | 12.2 | 0.00 | 0.00 | 0.00 | 74 | 1000.6 |
| 20260509195914 | 59 | 161 | 5.2 | 11.3 | 0.00 | 0.00 | 0.00 | 73 | 1000.7 |
| 20260509194441 | 60 | 199 | 4.3 | 13.9 | 0.00 | 0.00 | 0.00 | 70 | 1000.6 |
| 20260509192905 | 59 | 194 | 5.2 | 13.9 | 0.00 | 0.00 | 0.00 | 71 | 1001.2 |
| 20260509191420 | 59 | 149 | 4.3 | 17.4 | 0.00 | 0.00 | 0.00 | 71 | 1001.5 |
| 20260509185928 | 59 | 194 | 4.3 | 12.2 | 0.00 | 0.00 | 0.00 | 70 | 1001.8 |
| 20260509184435 | 59 | 156 | 6.1 | 15.6 | 0.00 | 0.00 | 0.00 | 66 | 1001.5 |
| 20260509182953 | 60 | 191 | 3.5 | 13.0 | 0.00 | 0.00 | 0.00 | 67 | 1001.4 |
| 20260509181428 | 61 | 171 | 5.2 | 11.3 | 0.00 | 0.00 | 0.00 | 63 | 1001.6 |
| 20260509175956 | 62 | 237 | 5.2 | 13.0 | 0.00 | 0.00 | 0.00 | 63 | 1001.5 |
| 20260509174520 | 62 | 187 | 6.1 | 16.5 | 0.00 | 0.00 | 0.00 | 62 | 1001.9 |
| 20260509173047 | 61 | 204 | 6.1 | 13.0 | 0.00 | 0.00 | 0.00 | 64 | 1002.0 |
| 20260509171511 | 61 | 236 | 6.1 | 12.2 | 0.00 | 0.00 | 0.00 | 63 | 1002.1 |
| 20260509170017 | 61 | 248 | 4.3 | 11.3 | 0.00 | 0.00 | 0.00 | 67 | 1002.3 |
| 20260509164439 | 59 | 221 | 6.1 | 12.2 | 0.00 | 0.00 | 0.00 | 69 | 1002.9 |
| 20260509162911 | 59 | 246 | 5.2 | 12.2 | 0.00 | 0.00 | 0.00 | 70 | 1003.4 |
| 20260509155817 | 60 | 238 | 5.2 | 9.6 | 0.00 | 0.00 | 0.00 | 70 | 1003.3 |
| 20260509154335 | 59 | 140 | 3.5 | 12.2 | 0.00 | 0.00 | 0.00 | 72 | 1003.3 |
| 20260509152753 | 59 | 126 | 3.5 | 12.2 | 0.00 | 0.00 | 0.00 | 74 | 1003.5 |
| 20260509151310 | 57 | 233 | 3.5 | 12.2 | 0.00 | 0.00 | 0.00 | 82 | 1003.7 |
| 20260509145845 | 55 | 236 | 2.6 | 6.1 | 0.00 | 0.00 | 0.00 | 86 | 1003.9 |
| 20260509144354 | 55 | 184 | 1.7 | 5.2 | 0.00 | 0.00 | 0.00 | 87 | 1004.1 |
| 20260509142844 | 54 | 200 | 2.6 | 5.2 | 0.00 | 0.00 | 0.00 | 89 | 1004.1 |
| 20260509141329 | 53 | 163 | 1.7 | 7.0 | 0.00 | 0.00 | 0.00 | 89 | 1004.2 |
| 20260509135806 | 52 | 157 | 2.6 | 7.0 | 0.00 | 0.00 | 0.00 | 89 | 1004.3 |
| 20260509134304 | 52 | 205 | 4.3 | 8.7 | 0.00 | 0.00 | 0.00 | 89 | 1004.5 |
| 20260509132730 | 52 | 204 | 4.3 | 11.3 | 0.00 | 0.00 | 0.00 | 90 | 1004.4 |